VOBZ

Vijayawada Airport

Airport
ICAO code
VOBZ
Summary
ICAO Region
APAC
ICAO Territory
Location

Vijayawada, Andhra Pradesh

Serving
Vijayawada
Coordinates
16° 31' 42" N , 80° 47' 39" E
KCC
Airport WX
Cumulonimbus
Metar
Observation
VOBZ 271200Z 09003KT 6000 SCT020 SCT025 FEW030CB 32/26 Q1003 NOSIG
Station
Vijayawada / Gannavaram
Date/Time
2022-09-27 12:00:00
Wind direction
90°
Wind speed
03 kts
Lowest cloud amount
scattered clouds
Temperature
32°C
Dew point
26°C
Humidity
70%
QNH
1003 hPa
Weather condition
n/a

Description

Vijayawada Airport is a regional airport located 20 km east of the central business district of Vijayawada, a city in the state of Andhra Pradesh, India.

Climatology

Tropical Savanna climate (Köppen climate classification Aw) - monthly mean temperatures above 18°C, and a pronounced dry season. A Tropical Savanna climate has more pronounced dry seasons than a Tropical Monsoon climate.

Airport map

Aerial View

SKYbrary Partners:

Safety knowledge contributed by: